createdAt,value
2022-08-07T00:00:21.078Z,43.03
2022-08-07T00:00:53.279Z,34.25
2022-08-07T00:02:35.168Z,23.08
2022-08-07T00:02:37.930Z,16.08
2022-08-07T00:03:13.628Z,19.95
2022-08-07T00:03:47.395Z,24.65
2022-08-07T00:04:24.431Z,21.63
2022-08-07T00:04:57.042Z,28.65
2022-08-07T00:05:29.619Z,14.60
2022-08-07T00:06:04.861Z,20.95
2022-08-07T00:06:47.263Z,15.70
2022-08-07T00:07:23.678Z,22.80
2022-08-07T00:08:02.327Z,20.55
2022-08-07T00:08:37.085Z,20.10
2022-08-07T00:09:21.053Z,24.33
2022-08-07T00:10:18.793Z,15.48
2022-08-07T00:10:57.415Z,23.92
2022-08-07T00:11:33.174Z,23.17
2022-08-07T00:12:08.699Z,18.35
2022-08-07T00:12:57.879Z,20.52
2022-08-07T00:13:37.518Z,15.52
2022-08-07T00:14:16.980Z,16.95
2022-08-07T00:14:53.907Z,16.67
2022-08-07T00:15:38.096Z,16.98
2022-08-07T00:16:27.924Z,17.42
2022-08-07T00:17:02.060Z,16.38
2022-08-07T00:17:37.388Z,16.55
2022-08-07T00:18:18.827Z,17.90
2022-08-07T00:18:52.155Z,16.33
2022-08-07T00:19:34.311Z,16.88
2022-08-07T00:20:29.758Z,16.52
2022-08-07T00:21:56.329Z,16.67
2022-08-07T00:22:05.799Z,16.13
2022-08-07T00:22:42.305Z,25.35
2022-08-07T00:23:24.783Z,16.13
2022-08-07T00:24:03.065Z,16.33
2022-08-07T00:24:35.381Z,14.98
2022-08-07T00:25:15.817Z,20.60
2022-08-07T00:26:01.523Z,30.70
2022-08-07T00:26:58.457Z,15.70
2022-08-07T00:27:51.783Z,20.60
2022-08-07T00:28:22.766Z,21.02
2022-08-07T00:29:06.566Z,21.10
2022-08-07T00:29:38.842Z,16.92
2022-08-07T00:30:27.708Z,19.95
2022-08-07T00:31:06.209Z,31.37
2022-08-07T00:31:44.407Z,21.20
2022-08-07T00:32:28.226Z,18.05
2022-08-07T00:33:02.103Z,23.30
2022-08-07T00:33:35.706Z,16.88
2022-08-07T00:34:10.646Z,19.08
2022-08-07T00:34:43.019Z,14.90
2022-08-07T00:35:15.193Z,27.27
2022-08-07T00:35:51.519Z,21.13
2022-08-07T00:36:23.681Z,22.13
2022-08-07T00:36:57.361Z,22.02
2022-08-07T00:37:47.822Z,16.08
2022-08-07T00:38:31.750Z,26.13
2022-08-07T00:39:08.102Z,15.80
2022-08-07T00:39:54.433Z,17.55
2022-08-07T00:40:36.655Z,15.07
2022-08-07T00:41:14.750Z,19.42
2022-08-07T00:41:53.527Z,22.27
2022-08-07T00:42:36.904Z,16.95
2022-08-07T00:44:00.694Z,16.85
2022-08-07T00:44:08.549Z,20.42
2022-08-07T00:44:41.506Z,27.40
2022-08-07T00:45:16.334Z,27.05
2022-08-07T00:45:51.800Z,24.52
2022-08-07T00:46:24.827Z,18.08
2022-08-07T00:46:57.080Z,16.63
2022-08-07T00:48:07.548Z,21.10
2022-08-07T00:48:31.801Z,19.45
2022-08-07T00:49:07.309Z,14.02
2022-08-07T00:50:21.453Z,14.15
2022-08-07T00:50:50.848Z,16.13
2022-08-07T00:51:56.409Z,15.65
2022-08-07T00:52:19.889Z,17.98
2022-08-07T00:52:54.900Z,19.15
2022-08-07T00:53:38.918Z,21.25
2022-08-07T00:54:22.487Z,15.68
2022-08-07T00:54:56.182Z,20.48
2022-08-07T00:56:02.330Z,15.43
2022-08-07T00:56:30.056Z,26.98
2022-08-07T00:57:06.106Z,17.73
2022-08-07T00:57:38.449Z,16.65
2022-08-07T00:58:30.196Z,20.20
2022-08-07T00:59:03.564Z,15.80
2022-08-07T00:59:36.453Z,14.43
2022-08-07T01:00:12.862Z,18.15
2022-08-07T01:00:53.638Z,14.40
2022-08-07T01:01:29.169Z,18.15
2022-08-07T01:02:28.264Z,34.92
2022-08-07T01:03:04.371Z,19.45
2022-08-07T01:03:56.252Z,17.55
2022-08-07T01:04:35.502Z,23.67
2022-08-07T01:05:19.805Z,31.15
2022-08-07T01:05:58.184Z,24.08
2022-08-07T01:06:30.654Z,23.52
2022-08-07T01:07:04.852Z,13.68
2022-08-07T01:07:39.804Z,21.00
2022-08-07T01:08:14.866Z,19.85
2022-08-07T01:08:53.486Z,17.50
2022-08-07T01:10:03.877Z,17.17
2022-08-07T01:10:23.827Z,22.20
2022-08-07T01:11:00.735Z,23.02
2022-08-07T01:12:09.144Z,15.10
2022-08-07T01:12:54.186Z,21.35
2022-08-07T01:13:35.194Z,14.98
2022-08-07T01:14:08.895Z,22.55
2022-08-07T01:14:45.068Z,24.50
2022-08-07T01:15:17.903Z,20.40
2022-08-07T01:16:05.548Z,15.57
2022-08-07T01:16:43.134Z,14.88
2022-08-07T01:17:15.851Z,20.45
2022-08-07T01:17:48.800Z,22.73
2022-08-07T01:18:24.793Z,14.30
2022-08-07T01:18:58.671Z,20.55
2022-08-07T01:19:33.002Z,18.70
2022-08-07T01:20:16.960Z,18.60
2022-08-07T01:20:57.567Z,24.33
2022-08-07T01:21:37.683Z,19.88
2022-08-07T01:22:16.237Z,22.40
2022-08-07T01:23:09.090Z,15.23
2022-08-07T01:23:49.086Z,21.40
2022-08-07T01:24:23.116Z,20.70
2022-08-07T01:24:56.272Z,20.52
2022-08-07T01:25:53.669Z,25.30
2022-08-07T01:26:26.009Z,17.90
2022-08-07T01:27:00.170Z,16.15
2022-08-07T01:27:35.693Z,14.77
2022-08-07T01:28:14.333Z,28.17
2022-08-07T01:28:49.170Z,19.77
2022-08-07T01:29:31.459Z,19.00
2022-08-07T01:30:08.354Z,20.30
2022-08-07T01:30:44.931Z,16.75
2022-08-07T01:31:41.511Z,16.55
2022-08-07T01:32:17.466Z,33.33
2022-08-07T01:32:54.878Z,15.30
2022-08-07T01:33:30.094Z,13.80
2022-08-07T01:34:30.055Z,17.42
2022-08-07T01:35:08.120Z,18.35
2022-08-07T01:35:53.844Z,20.52
2022-08-07T01:36:34.062Z,14.65
2022-08-07T01:37:18.072Z,17.17
2022-08-07T01:37:52.419Z,22.15
2022-08-07T01:38:29.249Z,13.65
2022-08-07T01:39:09.803Z,16.98
2022-08-07T01:39:46.578Z,17.83
2022-08-07T01:40:43.373Z,16.95
2022-08-07T01:42:37.604Z,26.05
2022-08-07T01:42:59.127Z,13.68
2022-08-07T01:43:38.474Z,13.88
2022-08-07T01:44:12.927Z,19.33
2022-08-07T01:44:49.790Z,27.30
2022-08-07T01:45:22.934Z,19.67
2022-08-07T01:46:05.997Z,23.58
2022-08-07T01:46:43.917Z,16.30
2022-08-07T01:48:20.741Z,16.55
2022-08-07T01:48:29.183Z,16.02
2022-08-07T01:49:03.350Z,15.07
2022-08-07T01:49:36.509Z,19.08
2022-08-07T01:50:13.187Z,26.38
2022-08-07T01:50:50.542Z,27.30
2022-08-07T01:52:01.213Z,15.90
2022-08-07T01:52:24.638Z,22.92
2022-08-07T01:53:08.612Z,24.83
2022-08-07T01:54:09.086Z,19.65
2022-08-07T01:54:44.482Z,19.02
2022-08-07T01:55:24.318Z,20.83
2022-08-07T01:56:07.678Z,15.13
2022-08-07T01:56:49.709Z,15.85
2022-08-07T01:57:27.771Z,14.77
2022-08-07T01:58:06.462Z,14.65
2022-08-07T01:59:03.916Z,20.00
2022-08-07T01:59:44.238Z,17.13
2022-08-07T02:00:28.759Z,18.23
2022-08-07T02:01:09.507Z,17.38
2022-08-07T02:02:00.191Z,20.95
2022-08-07T02:03:18.877Z,16.38
2022-08-07T02:03:50.417Z,17.52
2022-08-07T02:04:31.415Z,16.27
2022-08-07T02:05:16.161Z,18.33
2022-08-07T02:06:31.557Z,16.27
2022-08-07T02:07:07.132Z,20.10
2022-08-07T02:07:53.985Z,20.00
2022-08-07T02:08:40.585Z,19.85
2022-08-07T02:09:51.750Z,31.60
2022-08-07T02:10:16.653Z,19.50
2022-08-07T02:10:55.333Z,15.68
2022-08-07T02:12:03.377Z,17.02
2022-08-07T02:12:31.271Z,18.00
2022-08-07T02:13:07.834Z,17.98
2022-08-07T02:13:59.830Z,14.85
2022-08-07T02:14:40.834Z,22.02
2022-08-07T02:15:22.595Z,30.40
2022-08-07T02:16:02.212Z,15.13
2022-08-07T02:16:40.739Z,17.65
2022-08-07T02:17:16.567Z,25.50
2022-08-07T02:18:02.298Z,16.83
2022-08-07T02:18:38.318Z,18.88
2022-08-07T02:20:04.155Z,21.80
2022-08-07T02:20:23.549Z,18.23
2022-08-07T02:21:00.311Z,20.20
2022-08-07T02:21:56.588Z,24.65
2022-08-07T02:22:34.503Z,18.23
2022-08-07T02:23:11.694Z,18.30
2022-08-07T02:23:49.322Z,16.02
2022-08-07T02:24:24.022Z,15.45
2022-08-07T02:24:59.023Z,21.10
2022-08-07T02:26:32.022Z,15.75
2022-08-07T02:26:34.345Z,23.17
2022-08-07T02:27:08.610Z,21.30
2022-08-07T02:27:44.697Z,17.52
2022-08-07T02:28:28.842Z,15.05
2022-08-07T02:29:13.590Z,22.48
2022-08-07T02:29:54.674Z,28.75
2022-08-07T02:30:33.789Z,14.55
2022-08-07T02:31:18.690Z,19.02
2022-08-07T02:32:04.268Z,27.38
2022-08-07T02:32:39.418Z,25.13
2022-08-07T02:33:57.186Z,31.52
2022-08-07T02:34:27.085Z,18.83
2022-08-07T02:35:06.175Z,21.15
2022-08-07T02:36:30.096Z,24.45
2022-08-07T02:36:41.282Z,18.23
2022-08-07T02:37:22.230Z,22.25
2022-08-07T02:37:59.123Z,19.45
2022-08-07T02:38:38.744Z,26.77
2022-08-07T02:39:17.221Z,21.52
2022-08-07T02:40:30.978Z,28.67
2022-08-07T02:41:05.152Z,15.95
2022-08-07T02:41:40.515Z,15.75
2022-08-07T02:42:23.252Z,25.05
2022-08-07T02:42:57.855Z,15.90
2022-08-07T02:43:31.279Z,18.00
2022-08-07T02:44:07.873Z,18.00
2022-08-07T02:44:45.812Z,21.13
2022-08-07T02:45:58.128Z,19.33
2022-08-07T02:46:24.519Z,17.48
2022-08-07T02:47:00.982Z,14.77
2022-08-07T02:47:45.152Z,18.90
2022-08-07T02:48:25.908Z,23.23
2022-08-07T02:49:03.332Z,30.23
2022-08-07T02:49:59.103Z,20.52
2022-08-07T02:50:33.985Z,14.73
2022-08-07T02:51:29.260Z,14.77
2022-08-07T02:52:13.024Z,20.42
2022-08-07T02:53:03.238Z,23.13
2022-08-07T02:53:42.934Z,24.30
2022-08-07T02:54:20.549Z,21.27
2022-08-07T02:55:03.830Z,25.40
2022-08-07T02:56:02.246Z,25.73
2022-08-07T02:56:36.510Z,22.35
2022-08-07T02:57:13.576Z,39.38
2022-08-07T02:57:48.029Z,21.30
2022-08-07T02:58:27.299Z,22.13
2022-08-07T02:59:04.191Z,34.58
2022-08-07T02:59:45.591Z,21.33
2022-08-07T03:00:30.554Z,33.35
2022-08-07T03:01:04.452Z,23.00
2022-08-07T03:01:42.256Z,23.33
2022-08-07T03:02:20.544Z,18.88
2022-08-07T03:02:57.230Z,25.27
2022-08-07T03:03:49.156Z,37.05
2022-08-07T03:04:30.000Z,20.63
2022-08-07T03:05:05.196Z,17.33
2022-08-07T03:05:39.778Z,15.70
2022-08-07T03:06:32.100Z,18.80
2022-08-07T03:07:10.410Z,29.13
2022-08-07T03:08:05.030Z,15.30
2022-08-07T03:08:44.633Z,26.80
2022-08-07T03:09:44.737Z,28.52
2022-08-07T03:10:14.802Z,26.88
2022-08-07T03:10:47.383Z,17.42
2022-08-07T03:11:28.130Z,26.58
2022-08-07T03:12:03.038Z,16.52
2022-08-07T03:12:38.840Z,18.23
2022-08-07T03:13:20.160Z,27.17
2022-08-07T03:13:57.448Z,22.45
2022-08-07T03:14:36.360Z,23.38
2022-08-07T03:15:13.233Z,20.60
2022-08-07T03:16:03.170Z,20.05
2022-08-07T03:16:38.407Z,16.15
2022-08-07T03:17:14.527Z,17.83
2022-08-07T03:17:49.679Z,26.30
2022-08-07T03:18:34.544Z,19.33
2022-08-07T03:19:11.009Z,21.42
2022-08-07T03:19:54.520Z,24.58
2022-08-07T03:20:30.256Z,25.17
2022-08-07T03:21:03.003Z,27.60
2022-08-07T03:21:35.795Z,29.45
2022-08-07T03:22:18.929Z,25.55
2022-08-07T03:22:54.024Z,35.20
2022-08-07T03:23:33.884Z,23.60
2022-08-07T03:24:27.588Z,15.77
2022-08-07T03:25:03.407Z,20.58
2022-08-07T03:25:43.407Z,19.52
2022-08-07T03:26:23.665Z,27.40
2022-08-07T03:27:01.315Z,21.80
2022-08-07T03:27:59.731Z,25.45
2022-08-07T03:28:39.645Z,18.38
2022-08-07T03:29:14.724Z,24.52
2022-08-07T03:29:54.251Z,27.38
2022-08-07T03:30:31.086Z,21.77
2022-08-07T03:31:24.560Z,29.63
2022-08-07T03:32:05.626Z,15.43
2022-08-07T03:32:49.158Z,39.47
2022-08-07T03:33:40.109Z,21.08
2022-08-07T03:34:18.842Z,29.85
2022-08-07T03:35:17.564Z,25.80
2022-08-07T03:35:52.002Z,22.15
2022-08-07T03:36:29.939Z,27.23
2022-08-07T03:37:12.184Z,15.05
2022-08-07T03:37:53.882Z,27.08
2022-08-07T03:38:33.303Z,23.20
2022-08-07T03:39:10.058Z,33.72
2022-08-07T03:40:13.099Z,23.85
2022-08-07T03:40:44.172Z,18.55
2022-08-07T03:41:42.338Z,14.90
2022-08-07T03:42:15.656Z,43.55
2022-08-07T03:42:49.293Z,35.65
2022-08-07T03:43:26.637Z,27.73
2022-08-07T03:44:05.583Z,23.85
2022-08-07T03:44:53.694Z,35.45
2022-08-07T03:45:31.517Z,36.15
2022-08-07T03:46:18.447Z,29.33
2022-08-07T03:47:11.494Z,26.55
2022-08-07T03:47:51.633Z,33.13
2022-08-07T03:48:26.832Z,28.50
2022-08-07T03:49:05.606Z,38.80
2022-08-07T03:49:51.901Z,35.08
2022-08-07T03:50:29.309Z,27.65
2022-08-07T03:51:06.178Z,31.95
2022-08-07T03:52:01.045Z,63.63
2022-08-07T03:52:38.283Z,34.80
2022-08-07T03:53:15.695Z,36.55
2022-08-07T03:54:06.010Z,15.88
2022-08-07T03:54:54.102Z,38.35
2022-08-07T03:55:58.094Z,34.28
2022-08-07T03:56:33.092Z,32.55
2022-08-07T03:57:09.066Z,35.13
2022-08-07T03:59:05.151Z,33.38
2022-08-07T03:59:07.815Z,24.08
2022-08-07T03:59:37.405Z,38.88
2022-08-07T04:00:21.012Z,32.80
2022-08-07T04:01:07.633Z,48.47
2022-08-07T04:01:46.129Z,24.83
2022-08-07T04:02:21.907Z,21.58
2022-08-07T04:02:57.727Z,31.63
2022-08-07T04:03:38.892Z,36.85
2022-08-07T04:04:25.866Z,32.05
2022-08-07T04:05:06.120Z,35.97
2022-08-07T04:05:42.159Z,25.70
2022-08-07T04:06:37.907Z,24.90
2022-08-07T04:07:16.778Z,24.73
2022-08-07T04:07:51.846Z,56.22
2022-08-07T04:08:32.343Z,19.42
2022-08-07T04:09:05.988Z,24.55
2022-08-07T04:09:44.855Z,33.47
2022-08-07T04:10:19.646Z,30.83
2022-08-07T04:12:20.843Z,29.17
2022-08-07T04:12:26.885Z,44.17
2022-08-07T04:12:47.276Z,19.50
2022-08-07T04:13:22.034Z,28.98
2022-08-07T04:14:56.941Z,23.25
2022-08-07T04:15:32.509Z,21.75
2022-08-07T04:16:06.103Z,38.13
2022-08-07T04:16:58.186Z,23.02
2022-08-07T04:18:57.081Z,28.35
2022-08-07T04:18:57.425Z,24.42
2022-08-07T04:19:18.742Z,41.53
2022-08-07T04:19:55.872Z,34.08
2022-08-07T04:20:35.321Z,35.85
2022-08-07T04:21:08.087Z,33.60
2022-08-07T04:21:58.721Z,33.97
2022-08-07T04:22:36.242Z,29.42
2022-08-07T04:23:19.219Z,45.33
2022-08-07T04:24:03.907Z,24.02
2022-08-07T04:24:41.285Z,29.25
2022-08-07T04:25:18.790Z,37.75
2022-08-07T04:25:55.751Z,30.53
2022-08-07T04:26:31.510Z,37.63
2022-08-07T04:27:05.578Z,30.17
2022-08-07T04:28:00.469Z,22.75
2022-08-07T04:28:34.817Z,41.33
2022-08-07T04:29:10.833Z,35.65
2022-08-07T04:29:49.021Z,36.35
2022-08-07T04:30:55.211Z,34.88
2022-08-07T04:31:39.155Z,27.40
2022-08-07T04:32:34.577Z,22.80
2022-08-07T04:33:10.573Z,42.03
2022-08-07T04:33:54.964Z,57.10
2022-08-07T04:34:33.355Z,40.88
2022-08-07T04:35:11.578Z,72.13
2022-08-07T04:35:50.189Z,38.90
2022-08-07T04:36:26.242Z,31.85
2022-08-07T04:37:00.076Z,38.90
2022-08-07T04:38:00.786Z,37.60
2022-08-07T04:38:32.536Z,21.27
2022-08-07T04:39:06.602Z,36.22
2022-08-07T04:39:47.972Z,44.08
2022-08-07T04:40:29.603Z,49.30
2022-08-07T04:41:04.295Z,38.22
2022-08-07T04:41:50.387Z,51.80
2022-08-07T04:42:29.842Z,39.70
2022-08-07T04:43:03.402Z,31.90
2022-08-07T04:44:09.663Z,55.38
2022-08-07T04:44:54.488Z,32.03
2022-08-07T04:46:01.020Z,39.42
2022-08-07T04:47:04.141Z,26.63
2022-08-07T04:47:57.272Z,37.60
2022-08-07T04:48:44.874Z,48.95
2022-08-07T04:49:37.838Z,33.70
2022-08-07T04:50:18.624Z,40.72
2022-08-07T04:51:27.751Z,59.83
2022-08-07T04:52:12.730Z,51.45
2022-08-07T04:52:52.395Z,75.40
2022-08-07T04:54:05.302Z,58.33
2022-08-07T04:54:36.874Z,36.75
2022-08-07T04:58:09.904Z,33.95
2022-08-07T04:58:10.238Z,53.10
2022-08-07T04:58:15.999Z,43.78
2022-08-07T04:58:54.579Z,26.65
2022-08-07T05:00:11.510Z,38.47
2022-08-07T05:00:38.195Z,36.35
2022-08-07T05:01:20.544Z,18.08
2022-08-07T05:02:00.613Z,35.75
2022-08-07T05:02:43.738Z,73.57
2022-08-07T05:03:59.758Z,43.05
2022-08-07T05:04:26.398Z,42.83
2022-08-07T05:05:11.445Z,21.50
2022-08-07T05:06:19.196Z,33.45
2022-08-07T05:07:19.738Z,42.75
2022-08-07T05:08:01.161Z,40.60
2022-08-07T05:08:59.307Z,27.20
2022-08-07T05:09:45.421Z,37.90
2022-08-07T05:10:31.245Z,40.22
2022-08-07T05:11:09.767Z,44.30
2022-08-07T05:12:02.404Z,39.97
2022-08-07T05:12:46.221Z,21.23
2022-08-07T05:14:53.407Z,30.00
2022-08-07T05:14:53.822Z,33.85
2022-08-07T05:15:36.074Z,36.67
2022-08-07T05:16:12.545Z,21.77
2022-08-07T05:16:52.875Z,41.05
2022-08-07T05:17:53.055Z,41.78
2022-08-07T05:18:27.505Z,53.13
2022-08-07T05:19:11.586Z,34.10
2022-08-07T05:19:47.389Z,41.53
2022-08-07T05:20:26.936Z,40.63
2022-08-07T05:21:09.256Z,40.22
2022-08-07T05:22:00.198Z,28.52
2022-08-07T05:22:40.266Z,42.15
2022-08-07T05:23:23.056Z,30.02
2022-08-07T05:24:10.316Z,31.63
2022-08-07T05:25:25.865Z,35.15
2022-08-07T05:26:23.724Z,37.05
2022-08-07T05:27:05.586Z,31.48
2022-08-07T05:28:03.550Z,61.10
2022-08-07T05:28:49.926Z,54.10
2022-08-07T05:29:38.838Z,35.95
2022-08-07T05:30:30.130Z,35.08
2022-08-07T05:31:07.446Z,47.53
2022-08-07T05:31:51.186Z,42.75
2022-08-07T05:32:29.214Z,36.75
2022-08-07T05:33:03.444Z,35.78
2022-08-07T05:33:40.434Z,33.65
2022-08-07T05:34:26.354Z,32.65
2022-08-07T05:35:03.922Z,60.45
2022-08-07T05:35:42.125Z,46.20
2022-08-07T05:36:22.616Z,35.22
2022-08-07T05:37:07.695Z,47.58
2022-08-07T05:38:09.001Z,23.98
2022-08-07T05:38:58.140Z,39.55
2022-08-07T05:40:05.753Z,42.50
2022-08-07T05:40:31.613Z,34.40
2022-08-07T05:41:14.345Z,37.83
2022-08-07T05:42:00.567Z,28.88
2022-08-07T05:42:39.407Z,20.58
2022-08-07T05:43:18.667Z,39.55
2022-08-07T05:44:11.960Z,55.95
2022-08-07T05:45:04.416Z,44.08
2022-08-07T05:45:47.607Z,71.07
2022-08-07T05:46:26.519Z,41.22
2022-08-07T05:47:17.827Z,35.55
2022-08-07T05:48:02.017Z,41.88
2022-08-07T05:48:58.206Z,38.13
2022-08-07T05:49:40.384Z,47.33
2022-08-07T05:50:15.239Z,36.05
2022-08-07T05:50:48.292Z,36.70
2022-08-07T05:51:33.171Z,40.15
2022-08-07T05:52:05.905Z,23.55
2022-08-07T05:52:38.343Z,42.70
2022-08-07T05:54:13.309Z,61.30
2022-08-07T05:54:13.913Z,41.47
2022-08-07T05:55:10.198Z,63.78
2022-08-07T05:56:03.197Z,45.17
2022-08-07T05:56:42.803Z,30.13
2022-08-07T05:57:15.831Z,35.45
2022-08-07T05:57:48.703Z,25.63
2022-08-07T05:58:36.085Z,33.30
2022-08-07T05:59:16.335Z,37.33
2022-08-07T05:59:57.215Z,20.88
2022-08-07T06:00:33.835Z,34.65
2022-08-07T06:01:14.885Z,38.10
2022-08-07T06:01:51.510Z,42.33
2022-08-07T06:02:28.797Z,30.20
2022-08-07T06:03:08.631Z,91.72
2022-08-07T06:03:56.674Z,43.50
2022-08-07T06:04:38.074Z,54.15
2022-08-07T06:05:15.418Z,58.28
2022-08-07T06:05:56.623Z,27.65
2022-08-07T06:06:32.693Z,51.63
2022-08-07T06:07:08.612Z,72.93
2022-08-07T06:08:13.090Z,92.20
2022-08-07T06:08:55.278Z,105.07
2022-08-07T06:10:03.741Z,76.40
2022-08-07T06:10:24.160Z,100.28
2022-08-07T06:10:59.193Z,74.43
2022-08-07T06:11:37.835Z,86.63
2022-08-07T06:12:15.320Z,108.80
2022-08-07T06:12:48.933Z,133.02
2022-08-07T06:14:10.497Z,52.50
2022-08-07T06:14:21.390Z,82.88
2022-08-07T06:15:07.064Z,88.25
2022-08-07T06:15:42.450Z,70.65
2022-08-07T06:16:23.315Z,60.53
2022-08-07T06:17:07.073Z,65.03
2022-08-07T06:17:53.783Z,86.20
2022-08-07T06:18:30.646Z,63.20
2022-08-07T06:19:06.699Z,95.45
2022-08-07T06:19:52.318Z,71.13
2022-08-07T06:20:50.386Z,83.90
2022-08-07T06:22:14.427Z,61.80
2022-08-07T06:22:28.510Z,74.35
2022-08-07T06:23:46.100Z,117.15
2022-08-07T06:24:46.106Z,57.17
2022-08-07T06:25:02.959Z,70.78
2022-08-07T06:25:36.461Z,87.70
2022-08-07T06:26:15.760Z,99.35
2022-08-07T06:26:49.694Z,73.00
2022-08-07T06:28:00.545Z,80.10
2022-08-07T06:28:18.578Z,57.20
2022-08-07T06:29:06.498Z,54.03
2022-08-07T06:29:41.689Z,54.20
2022-08-07T06:30:31.927Z,52.58
2022-08-07T06:31:09.879Z,52.08
2022-08-07T06:31:50.021Z,48.25
2022-08-07T06:32:29.307Z,60.58
2022-08-07T06:33:42.565Z,86.97
2022-08-07T06:34:19.874Z,57.88
2022-08-07T06:34:54.505Z,52.45
2022-08-07T06:35:39.187Z,48.00
2022-08-07T06:36:34.777Z,76.75
2022-08-07T06:37:09.647Z,68.65
2022-08-07T06:37:47.312Z,102.95
2022-08-07T06:38:25.231Z,67.70
2022-08-07T06:40:16.016Z,145.88
2022-08-07T06:40:18.416Z,104.97
2022-08-07T06:40:56.069Z,79.70
2022-08-07T06:42:02.566Z,102.93
2022-08-07T06:42:50.865Z,76.13
2022-08-07T06:43:46.662Z,48.00
2022-08-07T06:44:45.105Z,46.25
2022-08-07T06:45:25.184Z,58.03
2022-08-07T06:46:04.910Z,65.13
2022-08-07T06:46:53.652Z,64.15
2022-08-07T06:47:57.265Z,93.88
2022-08-07T06:48:32.728Z,46.58
2022-08-07T06:49:08.140Z,81.20
2022-08-07T06:49:51.888Z,82.20
2022-08-07T06:50:26.174Z,90.53
2022-08-07T06:51:08.230Z,60.97
2022-08-07T06:51:49.920Z,73.85
2022-08-07T06:52:35.645Z,78.88
2022-08-07T06:53:49.180Z,79.95
2022-08-07T06:55:29.404Z,98.25
2022-08-07T06:55:34.051Z,53.75
2022-08-07T06:56:00.895Z,44.72
2022-08-07T06:56:49.658Z,67.20
2022-08-07T06:57:43.590Z,74.53
2022-08-07T06:58:28.718Z,42.58
2022-08-07T07:00:12.290Z,77.03
2022-08-07T07:00:18.027Z,56.90
2022-08-07T07:00:53.442Z,94.53
2022-08-07T07:01:27.035Z,67.28
2022-08-07T07:02:09.934Z,77.93
2022-08-07T07:02:53.821Z,106.70
2022-08-07T07:03:48.741Z,49.08
2022-08-07T07:04:28.450Z,61.47
2022-08-07T07:05:06.819Z,89.97
2022-08-07T07:06:05.063Z,60.42
2022-08-07T07:06:57.300Z,101.47
2022-08-07T07:07:59.107Z,78.85
2022-08-07T07:08:28.598Z,57.75
2022-08-07T07:09:19.287Z,64.72
2022-08-07T07:09:54.867Z,93.40
2022-08-07T07:10:28.691Z,26.70
2022-08-07T07:11:01.599Z,48.38
2022-08-07T07:12:07.888Z,49.03
2022-08-07T07:12:53.902Z,41.35
2022-08-07T07:13:56.154Z,46.80
2022-08-07T07:14:34.545Z,68.60
2022-08-07T07:15:23.784Z,40.50
2022-08-07T07:16:03.398Z,68.15
2022-08-07T07:16:49.947Z,54.67
2022-08-07T07:17:38.911Z,73.93
2022-08-07T07:18:43.087Z,75.35
2022-08-07T07:19:55.502Z,51.40
2022-08-07T07:20:15.931Z,76.20
2022-08-07T07:20:52.497Z,80.13
2022-08-07T07:22:04.042Z,71.57
2022-08-07T07:22:37.024Z,63.88
2022-08-07T07:24:06.298Z,73.20
2022-08-07T07:24:17.361Z,42.72
2022-08-07T07:25:02.623Z,59.03
2022-08-07T07:26:34.319Z,50.10
2022-08-07T07:26:41.282Z,58.13
2022-08-07T07:27:35.388Z,45.58
2022-08-07T07:28:42.049Z,93.53
2022-08-07T07:29:57.078Z,74.75
2022-08-07T07:30:32.747Z,51.53
2022-08-07T07:31:21.841Z,47.47
2022-08-07T07:31:56.831Z,83.57
2022-08-07T07:32:38.832Z,64.22
2022-08-07T07:33:15.157Z,69.47
2022-08-07T07:33:56.674Z,49.42
2022-08-07T07:34:34.634Z,65.68
2022-08-07T07:35:11.227Z,53.03
2022-08-07T07:35:54.679Z,60.20
2022-08-07T07:36:48.067Z,74.10
2022-08-07T07:37:47.476Z,155.52
2022-08-07T07:38:24.708Z,68.50
2022-08-07T07:39:00.811Z,120.88
2022-08-07T07:39:45.388Z,131.10
2022-08-07T07:40:26.267Z,84.43
2022-08-07T07:41:08.572Z,70.45
2022-08-07T07:42:02.043Z,55.10
2022-08-07T07:42:41.550Z,89.50
2022-08-07T07:43:18.585Z,86.97
2022-08-07T07:44:14.614Z,50.63
2022-08-07T07:46:36.533Z,94.00
2022-08-07T07:46:37.691Z,77.55
2022-08-07T07:47:23.808Z,53.85
2022-08-07T07:47:58.536Z,57.25
2022-08-07T07:48:35.957Z,87.63
2022-08-07T07:50:34.694Z,82.68
2022-08-07T07:50:35.565Z,61.92
2022-08-07T07:51:02.251Z,67.28
2022-08-07T07:51:58.139Z,64.55
2022-08-07T07:52:32.784Z,66.82
2022-08-07T07:53:06.137Z,61.95
2022-08-07T07:53:57.451Z,57.20
2022-08-07T07:54:32.027Z,59.90
2022-08-07T07:55:08.054Z,60.60
2022-08-07T07:55:54.836Z,54.58
2022-08-07T07:56:35.550Z,66.88
2022-08-07T07:57:09.298Z,54.10
2022-08-07T07:57:52.955Z,82.40
2022-08-07T07:58:28.862Z,35.40
2022-08-07T07:59:05.902Z,108.38
2022-08-07T07:59:53.377Z,45.20
2022-08-07T08:00:34.203Z,84.35
2022-08-07T08:02:03.296Z,123.75
2022-08-07T08:02:10.682Z,93.00
2022-08-07T08:03:01.314Z,48.40
2022-08-07T08:04:10.254Z,29.58
2022-08-07T08:04:37.219Z,83.50
2022-08-07T08:05:14.958Z,47.60
2022-08-07T08:05:54.772Z,56.13
2022-08-07T08:06:28.383Z,59.65
2022-08-07T08:07:07.751Z,64.25
2022-08-07T08:08:00.057Z,44.70
2022-08-07T08:08:39.445Z,76.90
2022-08-07T08:09:19.380Z,56.80
2022-08-07T08:10:04.893Z,50.90
2022-08-07T08:10:42.215Z,58.25
2022-08-07T08:11:59.128Z,54.83
2022-08-07T08:12:36.816Z,45.72
2022-08-07T08:13:15.004Z,63.15
2022-08-07T08:13:53.695Z,89.95
2022-08-07T08:14:27.420Z,60.47
2022-08-07T08:14:59.982Z,95.85
2022-08-07T08:15:57.877Z,45.00
2022-08-07T08:16:37.299Z,74.63
2022-08-07T08:17:57.990Z,72.88
2022-08-07T08:18:18.120Z,90.70
2022-08-07T08:18:57.316Z,100.35
2022-08-07T08:20:17.570Z,108.82
2022-08-07T08:20:32.271Z,122.63
2022-08-07T08:21:07.602Z,105.22
2022-08-07T08:22:03.082Z,64.78
2022-08-07T08:22:56.240Z,49.55
2022-08-07T08:23:46.203Z,62.60
2022-08-07T08:24:36.049Z,96.18
2022-08-07T08:25:42.478Z,58.30
2022-08-07T08:26:37.141Z,87.65
2022-08-07T08:27:16.634Z,79.90
2022-08-07T08:27:56.935Z,77.18
2022-08-07T08:28:43.437Z,76.63
2022-08-07T08:29:18.207Z,56.88
2022-08-07T08:29:56.324Z,79.88
2022-08-07T08:30:34.449Z,79.65
2022-08-07T08:31:14.892Z,66.47
2022-08-07T08:32:16.944Z,43.47
2022-08-07T08:32:49.164Z,55.15
2022-08-07T08:33:28.950Z,63.33
2022-08-07T08:34:08.639Z,81.75
2022-08-07T08:34:48.973Z,69.78
2022-08-07T08:35:28.851Z,95.20
2022-08-07T08:36:16.561Z,92.80
2022-08-07T08:36:57.735Z,63.67
2022-08-07T08:38:00.966Z,69.18
2022-08-07T08:38:38.686Z,83.25
2022-08-07T08:39:15.412Z,74.57
2022-08-07T08:39:55.272Z,44.33
2022-08-07T08:40:36.830Z,44.45
2022-08-07T08:41:57.618Z,47.55
2022-08-07T08:42:30.444Z,50.00
2022-08-07T08:43:11.046Z,61.55
2022-08-07T08:43:59.005Z,71.53
2022-08-07T08:44:44.998Z,55.10
2022-08-07T08:45:26.835Z,66.63
2022-08-07T08:46:27.334Z,63.38
2022-08-07T08:47:10.030Z,94.95
2022-08-07T08:47:54.827Z,83.18
2022-08-07T08:48:38.965Z,56.72
2022-08-07T08:49:33.602Z,111.68
2022-08-07T08:51:23.311Z,59.90
2022-08-07T08:52:14.459Z,65.80
2022-08-07T08:52:54.682Z,52.25
2022-08-07T08:53:35.038Z,59.35
2022-08-07T08:54:19.674Z,48.60
2022-08-07T08:55:01.245Z,58.58
2022-08-07T08:55:54.891Z,34.45
2022-08-07T08:56:33.846Z,50.20
2022-08-07T08:57:14.933Z,69.80
2022-08-07T08:57:55.770Z,41.03
2022-08-07T08:58:35.531Z,54.40
2022-08-07T08:59:57.412Z,40.88
2022-08-07T09:00:43.091Z,68.72
2022-08-07T09:01:29.939Z,50.60
2022-08-07T09:02:35.002Z,95.47
2022-08-07T09:03:20.200Z,65.28
2022-08-07T09:04:10.968Z,47.22
2022-08-07T09:04:55.064Z,64.38
2022-08-07T09:05:41.173Z,61.60
2022-08-07T09:06:21.457Z,81.75
2022-08-07T09:07:05.870Z,111.00
2022-08-07T09:07:58.009Z,76.88
2022-08-07T09:08:43.834Z,65.32
2022-08-07T09:09:33.220Z,47.65
2022-08-07T09:10:19.994Z,52.13
2022-08-07T09:11:02.223Z,64.22
2022-08-07T09:11:53.296Z,71.93
2022-08-07T09:12:53.050Z,77.45
2022-08-07T09:13:37.906Z,68.82
2022-08-07T09:14:15.331Z,92.25
2022-08-07T09:15:01.052Z,46.85
2022-08-07T09:16:23.996Z,75.55
2022-08-07T09:17:16.634Z,58.28
2022-08-07T09:18:10.101Z,54.33
2022-08-07T09:19:53.239Z,81.80
2022-08-07T09:20:35.258Z,51.40
2022-08-07T09:21:33.800Z,77.18
2022-08-07T09:24:29.059Z,68.50
2022-08-07T09:24:33.684Z,87.07
2022-08-07T09:24:55.065Z,39.40
2022-08-07T09:25:39.788Z,61.38
2022-08-07T09:26:25.667Z,59.90
2022-08-07T09:27:11.908Z,41.38